createdAt,value
2022-08-17T00:01:20.759Z,3.83
2022-08-17T00:03:51.601Z,7.45
2022-08-17T00:06:20.076Z,4.63
2022-08-17T00:08:48.843Z,4.15
2022-08-17T00:11:17.648Z,5.43
2022-08-17T00:16:16.825Z,6.63
2022-08-17T00:19:01.157Z,6.63
2022-08-17T00:26:34.687Z,4.65
2022-08-17T00:41:18.778Z,9.68
2022-08-17T00:43:48.119Z,8.05
2022-08-17T00:46:16.653Z,6.20
2022-08-17T00:48:44.222Z,12.15
2022-08-17T00:51:22.962Z,4.60
2022-08-17T00:56:34.591Z,5.63
2022-08-17T01:06:21.222Z,7.68
2022-08-17T01:08:50.073Z,7.22
2022-08-17T01:13:49.808Z,8.50
2022-08-17T01:16:18.656Z,9.73
2022-08-17T01:18:46.943Z,7.25
2022-08-17T01:23:43.325Z,6.82
2022-08-17T01:26:10.007Z,4.75
2022-08-17T01:28:55.459Z,5.90
2022-08-17T01:31:23.382Z,6.97
2022-08-17T01:34:09.168Z,8.60
2022-08-17T01:39:02.852Z,4.78
2022-08-17T01:41:29.547Z,9.85
2022-08-17T01:48:57.722Z,9.25
2022-08-17T01:51:26.080Z,10.65
2022-08-17T01:53:54.240Z,8.48
2022-08-17T01:56:23.151Z,7.85
2022-08-17T01:58:50.191Z,6.00
2022-08-17T02:01:18.419Z,7.63
2022-08-17T02:03:59.259Z,9.20
2022-08-17T02:13:57.848Z,8.82
2022-08-17T02:16:37.040Z,5.53
2022-08-17T02:21:32.490Z,7.50
2022-08-17T02:23:59.403Z,5.22
2022-08-17T02:26:26.689Z,10.55
2022-08-17T02:31:19.518Z,8.82
2022-08-17T02:33:46.223Z,6.45
2022-08-17T02:39:30.349Z,6.10
2022-08-17T02:42:01.037Z,4.53
2022-08-17T02:44:39.233Z,8.90
2022-08-17T02:54:40.030Z,7.45
2022-08-17T02:57:08.657Z,8.27
2022-08-17T03:04:28.043Z,5.10
2022-08-17T03:11:45.578Z,5.95
2022-08-17T03:19:04.295Z,6.97
2022-08-17T03:21:31.083Z,6.35
2022-08-17T03:23:57.744Z,7.78
2022-08-17T03:26:24.437Z,4.82
2022-08-17T03:28:56.347Z,10.20
2022-08-17T03:31:25.719Z,5.28
2022-08-17T03:33:52.387Z,5.32
2022-08-17T03:36:19.131Z,5.88
2022-08-17T03:38:45.754Z,8.50
2022-08-17T03:41:14.015Z,4.72
2022-08-17T03:43:40.718Z,5.85
2022-08-17T03:46:28.401Z,3.53
2022-08-17T03:49:24.998Z,4.28
2022-08-17T03:52:10.947Z,5.43
2022-08-17T04:12:05.020Z,4.00
2022-08-17T04:14:51.425Z,3.88
2022-08-17T04:19:46.889Z,7.38
2022-08-17T04:22:30.277Z,4.78
2022-08-17T04:25:01.183Z,2.45
2022-08-17T04:27:27.840Z,9.73
2022-08-17T04:29:56.143Z,5.78
2022-08-17T04:34:48.600Z,4.40
2022-08-17T04:37:15.337Z,9.10
2022-08-17T04:40:04.141Z,4.00
2022-08-17T04:42:32.404Z,6.80
2022-08-17T04:44:59.029Z,3.97
2022-08-17T04:52:29.737Z,8.43
2022-08-17T04:57:29.959Z,15.38
2022-08-17T05:02:33.054Z,29.52
2022-08-17T05:04:59.899Z,40.03
2022-08-17T05:09:52.340Z,64.63
2022-08-17T05:12:19.015Z,66.88
2022-08-17T05:14:45.667Z,69.32
2022-08-17T05:22:06.735Z,54.33
2022-08-17T05:27:06.305Z,40.20
2022-08-17T05:29:35.422Z,55.55
2022-08-17T05:34:39.607Z,58.70
2022-08-17T05:37:06.299Z,53.65
2022-08-17T05:39:33.178Z,33.58
2022-08-17T05:42:02.000Z,42.00
2022-08-17T05:44:28.642Z,36.72
2022-08-17T05:46:56.014Z,17.02
2022-08-17T05:49:27.294Z,16.10
2022-08-17T05:57:47.574Z,3.25
2022-08-17T06:00:30.756Z,6.53
2022-08-17T06:03:01.581Z,4.55
2022-08-17T06:08:24.232Z,4.75
2022-08-17T06:13:22.137Z,5.30
2022-08-17T06:20:56.451Z,3.78
2022-08-17T06:29:09.378Z,5.03
2022-08-17T06:31:45.922Z,3.70
2022-08-17T06:36:44.161Z,5.13
2022-08-17T06:39:24.561Z,4.78
2022-08-17T06:42:09.645Z,5.53
2022-08-17T06:45:13.608Z,6.45
2022-08-17T06:47:54.478Z,4.28
2022-08-17T06:50:27.432Z,3.78
2022-08-17T06:52:57.182Z,5.05
2022-08-17T06:55:26.678Z,4.63
2022-08-17T06:57:55.317Z,2.95
2022-08-17T07:00:24.096Z,3.67
2022-08-17T07:02:55.370Z,3.47
2022-08-17T07:08:04.144Z,3.28
2022-08-17T07:10:36.119Z,4.82
2022-08-17T07:13:16.839Z,1.92
2022-08-17T07:18:10.610Z,3.42
2022-08-17T07:20:40.844Z,7.25
2022-08-17T07:23:14.783Z,4.40
2022-08-17T07:25:41.466Z,5.40
2022-08-17T07:28:08.098Z,1.63
2022-08-17T07:33:13.216Z,1.98
2022-08-17T07:35:43.923Z,3.10
2022-08-17T07:38:24.957Z,1.15
2022-08-17T07:41:03.155Z,2.70
2022-08-17T07:46:42.385Z,3.47
2022-08-17T07:49:09.115Z,1.45
2022-08-17T07:51:39.978Z,3.15
2022-08-17T07:54:15.838Z,1.45
2022-08-17T07:56:45.350Z,1.73
2022-08-17T07:59:33.360Z,2.65
2022-08-17T08:02:06.310Z,3.05
2022-08-17T08:07:08.582Z,2.42
2022-08-17T08:12:25.636Z,2.65
2022-08-17T08:15:02.162Z,3.38
2022-08-17T08:17:32.073Z,2.78
2022-08-17T08:20:00.309Z,2.58
2022-08-17T08:25:36.435Z,2.45
2022-08-17T08:28:12.577Z,3.17
2022-08-17T08:30:43.476Z,3.05
2022-08-17T08:33:10.097Z,2.42
2022-08-17T08:38:12.669Z,2.67
2022-08-17T08:40:46.015Z,5.85
2022-08-17T08:43:15.778Z,2.08
2022-08-17T08:45:50.411Z,10.40
2022-08-17T08:48:52.863Z,17.10
2022-08-17T08:51:27.852Z,13.63
2022-08-17T08:54:17.439Z,11.40
2022-08-17T08:57:22.137Z,10.73
2022-08-17T08:59:57.697Z,7.90
2022-08-17T09:02:43.219Z,2.90
2022-08-17T09:05:19.094Z,5.30
2022-08-17T09:15:52.462Z,2.85
2022-08-17T09:18:59.418Z,4.75
2022-08-17T09:26:46.645Z,2.45
2022-08-17T09:31:59.763Z,1.33
2022-08-17T09:34:34.166Z,2.03
2022-08-17T09:37:07.967Z,3.87
2022-08-17T09:39:42.075Z,2.42
2022-08-17T09:42:08.941Z,0.90
2022-08-17T09:44:50.712Z,2.40
2022-08-17T09:47:32.537Z,1.30
2022-08-17T09:52:49.996Z,1.10
2022-08-17T09:55:16.762Z,1.33
2022-08-17T09:58:02.060Z,2.05
2022-08-17T10:00:37.248Z,2.58
2022-08-17T10:03:22.417Z,2.35
2022-08-17T10:05:56.977Z,6.78
2022-08-17T10:11:15.335Z,1.90
2022-08-17T10:13:52.890Z,2.08
2022-08-17T10:16:23.123Z,3.00
2022-08-17T10:18:56.091Z,3.50
2022-08-17T10:21:41.759Z,4.45
2022-08-17T10:25:21.702Z,4.80
2022-08-17T10:27:43.996Z,1.60
2022-08-17T10:32:44.857Z,4.38
2022-08-17T10:41:08.838Z,2.88
2022-08-17T10:46:31.113Z,4.13
2022-08-17T10:49:17.066Z,2.10
2022-08-17T10:51:48.061Z,4.43
2022-08-17T10:56:58.919Z,4.22
2022-08-17T10:59:31.435Z,3.45
2022-08-17T11:02:14.075Z,4.07
2022-08-17T11:04:59.663Z,4.78
2022-08-17T11:07:46.605Z,6.57
2022-08-17T11:10:31.919Z,7.85
2022-08-17T11:17:52.199Z,5.30
2022-08-17T11:20:24.766Z,2.65
2022-08-17T11:25:42.077Z,4.20
2022-08-17T11:28:19.389Z,3.15
2022-08-17T11:30:48.876Z,4.65
2022-08-17T11:36:25.028Z,3.78
2022-08-17T11:39:10.240Z,4.60
2022-08-17T11:41:44.500Z,5.88
2022-08-17T11:47:17.616Z,3.88
2022-08-17T11:50:03.263Z,5.93
2022-08-17T11:52:36.307Z,3.85
2022-08-17T12:02:47.422Z,2.78
2022-08-17T12:05:17.569Z,4.55
2022-08-17T12:10:21.647Z,3.53
2022-08-17T12:12:50.375Z,4.25
2022-08-17T12:17:52.869Z,8.70
2022-08-17T12:20:24.141Z,7.80
2022-08-17T12:25:49.762Z,5.80
2022-08-17T12:28:24.867Z,5.40
2022-08-17T12:30:52.130Z,4.90
2022-08-17T12:33:25.395Z,4.05
2022-08-17T12:38:31.806Z,8.33
2022-08-17T12:41:22.477Z,6.70
2022-08-17T12:44:09.684Z,10.73
2022-08-17T12:46:47.699Z,6.28
2022-08-17T12:49:23.776Z,7.00
2022-08-17T12:51:51.516Z,4.25
2022-08-17T12:54:29.705Z,7.13
2022-08-17T12:56:57.268Z,5.43
2022-08-17T12:59:30.357Z,7.28
2022-08-17T13:01:57.509Z,5.63
2022-08-17T13:04:24.303Z,5.30
2022-08-17T13:06:59.589Z,4.78
2022-08-17T13:11:59.452Z,6.07
2022-08-17T13:14:26.900Z,5.13
2022-08-17T13:17:00.788Z,6.95
2022-08-17T13:19:40.078Z,5.00
2022-08-17T13:34:51.392Z,6.68
2022-08-17T13:37:34.774Z,5.95
2022-08-17T13:42:52.585Z,8.02
2022-08-17T13:45:36.679Z,9.95
2022-08-17T13:48:05.425Z,9.32
2022-08-17T13:50:32.329Z,8.63
2022-08-17T13:52:59.043Z,14.85
2022-08-17T13:55:28.326Z,11.95
2022-08-17T13:58:06.988Z,10.40
2022-08-17T14:05:28.459Z,25.25
2022-08-17T14:08:00.947Z,18.80
2022-08-17T14:10:28.332Z,20.63
2022-08-17T14:12:54.992Z,22.88
2022-08-17T14:15:22.691Z,25.23
2022-08-17T14:17:49.733Z,23.65
2022-08-17T14:20:19.457Z,19.13
2022-08-17T14:22:51.555Z,15.95
2022-08-17T14:25:23.556Z,20.83
2022-08-17T14:27:53.352Z,21.33
2022-08-17T14:32:52.118Z,18.85
2022-08-17T14:35:21.953Z,14.15
2022-08-17T14:37:49.332Z,16.23
2022-08-17T14:40:16.992Z,13.20
2022-08-17T14:42:45.887Z,13.30
2022-08-17T14:47:40.447Z,10.52
2022-08-17T14:50:09.573Z,12.38
2022-08-17T14:52:39.683Z,8.32
2022-08-17T14:55:07.017Z,9.55
2022-08-17T14:57:34.631Z,11.30
2022-08-17T15:02:31.164Z,11.13
2022-08-17T15:04:59.356Z,10.45
2022-08-17T15:09:52.075Z,9.00
2022-08-17T15:12:22.154Z,10.43
2022-08-17T15:14:48.837Z,13.38
2022-08-17T15:17:15.569Z,14.52
2022-08-17T15:19:42.392Z,19.88
2022-08-17T15:24:48.072Z,17.02
2022-08-17T15:27:14.777Z,18.30
2022-08-17T15:29:50.920Z,16.25
2022-08-17T15:32:27.557Z,16.58
2022-08-17T15:34:56.887Z,17.42
2022-08-17T15:37:24.591Z,16.02
2022-08-17T15:39:51.620Z,15.35
2022-08-17T15:42:19.172Z,13.35
2022-08-17T15:44:46.031Z,10.60
2022-08-17T15:47:12.962Z,11.20
2022-08-17T15:49:40.941Z,13.05
2022-08-17T15:52:21.206Z,10.77
2022-08-17T15:59:44.461Z,12.75
2022-08-17T16:04:43.222Z,12.27
2022-08-17T16:07:10.961Z,10.13
2022-08-17T16:19:32.607Z,10.98
2022-08-17T16:21:59.301Z,12.88
2022-08-17T16:24:26.024Z,13.98
2022-08-17T16:26:52.674Z,15.20
2022-08-17T16:29:21.452Z,14.63
2022-08-17T16:31:48.202Z,12.20
2022-08-17T16:34:17.240Z,11.40
2022-08-17T16:36:55.221Z,12.00
2022-08-17T16:39:34.367Z,12.65
2022-08-17T16:42:02.782Z,12.93
2022-08-17T16:44:30.681Z,14.23
2022-08-17T16:46:57.964Z,13.15
2022-08-17T16:49:37.163Z,12.95
2022-08-17T16:52:10.338Z,12.68
2022-08-17T16:54:38.593Z,12.77
2022-08-17T16:57:05.518Z,12.38
2022-08-17T17:12:00.371Z,13.50
2022-08-17T17:14:29.656Z,16.70
2022-08-17T17:17:03.207Z,13.55
2022-08-17T17:19:59.407Z,11.80
2022-08-17T17:33:10.893Z,13.07
2022-08-17T17:38:24.798Z,14.55
2022-08-17T17:41:00.483Z,16.75
2022-08-17T17:43:40.234Z,17.15
2022-08-17T17:46:27.797Z,13.20
2022-08-17T17:51:55.028Z,13.60
2022-08-17T17:54:12.023Z,12.50
2022-08-17T17:56:44.060Z,12.90
2022-08-17T18:02:02.923Z,15.40
2022-08-17T18:04:36.878Z,10.75
2022-08-17T18:07:18.768Z,13.38
2022-08-17T18:09:51.622Z,18.50
2022-08-17T18:17:36.451Z,18.98
2022-08-17T18:20:04.473Z,20.67
2022-08-17T18:22:31.507Z,21.35
2022-08-17T18:27:23.584Z,22.00
2022-08-17T18:29:52.991Z,21.98
2022-08-17T18:32:23.897Z,20.58
2022-08-17T18:34:55.319Z,22.58
2022-08-17T18:37:33.292Z,18.15
2022-08-17T18:40:08.443Z,17.02
2022-08-17T18:45:00.865Z,19.13
2022-08-17T18:47:28.145Z,21.05
2022-08-17T18:49:58.026Z,19.33
2022-08-17T18:52:32.070Z,18.38
2022-08-17T18:54:58.712Z,21.55
2022-08-17T18:57:35.042Z,19.90
2022-08-17T19:00:10.971Z,20.02
2022-08-17T19:02:49.242Z,23.10
2022-08-17T19:05:31.003Z,25.40
2022-08-17T19:10:46.977Z,24.25
2022-08-17T19:13:25.803Z,24.08
2022-08-17T19:16:12.024Z,22.00
2022-08-17T19:21:15.403Z,26.20
2022-08-17T19:23:42.079Z,23.77
2022-08-17T19:28:58.704Z,24.70
2022-08-17T19:31:30.028Z,23.13
2022-08-17T19:33:57.344Z,23.02
2022-08-17T19:36:32.948Z,25.58
2022-08-17T19:39:26.467Z,24.85
2022-08-17T19:42:11.143Z,31.52
2022-08-17T19:45:01.545Z,29.52
2022-08-17T19:55:48.002Z,30.55
2022-08-17T19:58:33.157Z,33.17
2022-08-17T20:03:29.258Z,38.28
2022-08-17T20:06:12.701Z,38.08
2022-08-17T20:16:12.358Z,39.00
2022-08-17T20:18:51.251Z,37.00
2022-08-17T20:21:26.821Z,41.17
2022-08-17T20:23:59.924Z,42.53
2022-08-17T20:26:28.549Z,41.70
2022-08-17T20:29:04.318Z,37.97
2022-08-17T20:31:40.143Z,44.30
2022-08-17T20:34:25.582Z,43.67
2022-08-17T20:37:04.715Z,43.42
2022-08-17T20:39:38.008Z,42.78
2022-08-17T20:42:09.419Z,40.42
2022-08-17T20:52:44.787Z,49.15
2022-08-17T21:00:51.417Z,48.88
2022-08-17T21:03:24.189Z,52.35
2022-08-17T21:05:58.846Z,53.85
2022-08-17T21:08:29.685Z,51.63
2022-08-17T21:13:31.931Z,57.85
2022-08-17T21:16:02.929Z,67.82
2022-08-17T21:18:38.891Z,65.97
2022-08-17T21:24:19.478Z,56.63
2022-08-17T21:27:12.292Z,65.17
2022-08-17T21:44:59.596Z,71.03
2022-08-17T21:47:27.636Z,73.43
2022-08-17T21:49:55.160Z,86.22
2022-08-17T21:52:23.391Z,82.65
2022-08-17T21:54:50.008Z,78.07
2022-08-17T21:57:18.400Z,83.70
2022-08-17T21:59:45.113Z,82.20
2022-08-17T22:05:00.153Z,89.15
2022-08-17T22:10:30.614Z,93.30
2022-08-17T22:13:05.234Z,98.43
2022-08-17T22:15:44.469Z,99.13
2022-08-17T22:20:51.854Z,114.53
2022-08-17T22:26:12.891Z,115.28
2022-08-17T22:28:40.103Z,110.97
2022-08-17T22:31:08.255Z,112.07
2022-08-17T22:33:39.689Z,115.13
2022-08-17T22:38:35.044Z,117.97
2022-08-17T22:41:20.608Z,121.32
2022-08-17T22:43:48.221Z,104.88
2022-08-17T22:46:15.424Z,106.03
2022-08-17T22:48:47.758Z,110.28
2022-08-17T22:51:17.651Z,112.95
2022-08-17T22:56:52.461Z,115.60
2022-08-17T23:02:14.369Z,123.20
2022-08-17T23:04:43.601Z,122.85
2022-08-17T23:07:10.523Z,127.50
2022-08-17T23:09:37.273Z,116.10
2022-08-17T23:12:06.648Z,132.38
2022-08-17T23:14:36.993Z,156.35
2022-08-17T23:17:04.477Z,150.90
2022-08-17T23:24:24.373Z,127.55
2022-08-17T23:26:51.186Z,133.57
2022-08-17T23:29:20.253Z,139.23
2022-08-17T23:31:47.460Z,138.43
2022-08-17T23:34:15.242Z,139.00
2022-08-17T23:36:43.062Z,133.07
2022-08-17T23:39:09.743Z,141.35
2022-08-17T23:48:55.971Z,120.22
2022-08-17T23:51:29.006Z,114.13
2022-08-17T23:54:07.676Z,121.15
